x

Western Hawaii - 205 Nm Sw Of Honolulu, Hi (51003) Wave Buoy

11:50pm - Fri 19th Sep 2014 All times are HST. -10 hours from GMT.

  • Sig Wave height 4.3ft
  • Peak Period 9s
  • Average Period 8s
  • Wind
    4mph, 7mph gusts
  • Sea Temp 84°f
  • Air Temp 82°f
  • Sea Pressure 1013.8mb
  • Western  Hawaii - 205 Nm Sw Of Honolulu, Hi
  • Western  Hawaii - 205 Nm Sw Of Honolulu, Hi

More Historic Weather Station data

Upgrade to MSW Pro to gain access to the past 30 days of data for over 8000 Wavebouys and Weather Stations around the globe.

Join Pro

Comparision Forecast

View Surf forecast
   
Fri 09/19 11:50pm 4.5ft 9s 8s 4 7 mph 1013.8mb 84f 82f
10:50pm 4.5ft 10s 8s 4 7 mph 1014mb 84f 82f
9:50pm 4.5ft 9s 8s 4 7 mph 1014.1mb 84f 82f
8:50pm 4.5ft 11s 8s 4 7 mph 1013.7mb 84f 82f
7:50pm 4ft 9s 7s 4 7 mph 1013.4mb 85f 82f
6:50pm 4.5ft 11s 8s 4 7 mph 1012.7mb 85f 82f
5:50pm 4.5ft 10s 8s 4 7 mph 1012.1mb 85f 83f
4:50pm 4.5ft 11s 8s 2 4 mph 1011.7mb 86f 82f
3:50pm 4.5ft 11s 8s 4 7 mph 1011.5mb 86f 82f
2:50pm 4ft 11s 7s 2 4 mph 1011.8mb 86f 82f
1:50pm 4ft 11s 7s 4
mph
1012.3mb 85f 82f
12:50pm 4.5ft 8s 7s 4 7 mph 1013.1mb 85f 82f
11:50am 4ft 11s 8s 7 9 mph 1013.8mb 84f 82f
10:50am 4ft 11s 8s 7 9 mph 1014.2mb 84f 82f
9:50am 4.5ft 11s 8s 4 7 mph 1014.2mb 84f 82f
8:50am 4.5ft 11s 8s 7 9 mph 1014.1mb 84f 82f
7:50am 4.5ft 11s 8s 2 7 mph 1013.7mb 83f 82f
6:50am 4.5ft 12s 8s 7 9 mph 1013.3mb 83f 81f
5:50am 4.5ft 11s 7s 7
mph
1013.1mb 83f 81f
4:50am 4.5ft 11s 7s 7
mph
1012.7mb 83f 81f
3:50am 4.5ft 11s 8s 2 7 mph 1012.5mb 83f 81f
2:50am 4.5ft 11s 8s 2 7 mph 1012.9mb 83f 81f
1:50am 4.5ft 11s 8s 2 4 mph 1013.4mb 84f 81f
12:50am 4.5ft 11s 8s 2 7 mph 1013.8mb 84f 81f
Thu 09/18 11:50pm 4.5ft 11s 7s 2 4 mph 1014.1mb 84f 82f
10:50pm 5ft 11s 8s 2 7 mph 1014.4mb 84f 82f
9:50pm 4.5ft 11s 7s 4 9 mph 1014.4mb 84f 82f
8:50pm 4.5ft 11s 8s 2 7 mph 1014.3mb 84f 82f
7:50pm 5ft 11s 8s 2 7 mph 1013.8mb 84f 82f
6:50pm 4.5ft 11s 8s 4 7 mph 1013.1mb 85f 82f
5:50pm 5ft 10s 8s 2 4 mph 1012.6mb 85f 83f
4:50pm 5ft 11s 8s 4
mph
1012.2mb 85f 82f
3:50pm 4.5ft 11s 7s 4 7 mph 1012.1mb 85f 82f
2:50pm 5ft 11s 7s 7 9 mph 1012.4mb 85f 82f
1:50pm 5ft 10s 7s 7 9 mph 1012.8mb 85f 82f
12:50pm 5ft 11s 8s 7 9 mph 1013.5mb 85f 82f
11:50am 5ft 12s 8s 7
mph
1014.1mb 85f 82f
10:50am 4.5ft 13s 7s 4
mph
1014.4mb 84f 82f
9:50am 5ft 11s 8s 4 7 mph 1014.4mb 84f 82f
8:50am 5ft 8s 7s 4 7 mph 1014.2mb 83f 82f
7:50am 5ft 11s 7s 4 7 mph 1013.7mb 83f 82f
6:50am 5ft 11s 7s 2 4 mph 1013mb 83f 81f
5:50am 5ft 11s 7s 4 7 mph 1012.9mb 83f 81f
4:50am 5ft 11s 7s 4 7 mph 1012.6mb 83f 81f
3:50am 5ft 14s 7s 4 7 mph 1012.6mb 83f 81f
2:50am 5.5ft 12s 8s 7 9 mph 1013mb 83f 81f
1:50am 5ft 12s 8s 7 9 mph 1013.5mb 83f 81f
12:50am 5ft 11s 8s 9 11 mph 1014mb 83f 81f
Wed 09/17 11:50pm 5ft 14s 8s 9 13 mph 1014.5mb 83f 82f
10:50pm 5ft 14s 8s 9 11 mph 1014.8mb 83f 82f
9:50pm 5ft 10s 8s 9 11 mph 1015mb 83f 82f
8:50pm 5.5ft 11s 8s 9 11 mph 1014.6mb 83f 82f
7:50pm 5ft 13s 8s 9 11 mph 1014.1mb 84f 82f
6:50pm 5ft 10s 8s 9 11 mph 1013.4mb 84f 82f
5:50pm 5ft 11s 7s 9 11 mph 1012.9mb 84f 82f
4:50pm 5ft 11s 7s 9 11 mph 1012.6mb 84f 82f
3:50pm 6ft 13s 8s 9 11 mph 1012.4mb 84f 82f
2:50pm 5ft 14s 7s 11 13 mph 1012.4mb 84f 82f
1:50pm 5.5ft 12s 7s 11 13 mph 1013.1mb 84f 82f
12:50pm 5ft 13s 7s 9 11 mph 1013.7mb 84f 82f
11:50am 5.5ft 11s 7s 9 11 mph 1014.2mb 83f 82f
10:50am 5ft 9s 7s 13 16 mph 1014.6mb 83f 82f
9:50am 5ft 14s 7s 11 13 mph 1014.8mb 83f 82f
8:50am 5ft 14s 7s 11 13 mph 1014.5mb 83f 82f
7:50am 6ft 14s 7s 11 13 mph 1013.9mb 83f 82f
6:50am 5ft 11s 7s 11 13 mph 1013.5mb 83f 81f
5:50am 5.5ft 12s 7s 11 13 mph 1013.1mb 83f 81f
4:50am 5ft 15s 7s 11 13 mph 1012.9mb 83f 81f
3:50am 5.5ft 12s 7s 11 13 mph 1012.7mb 83f 81f
2:50am 6ft 15s 7s 11 16 mph 1013.1mb 83f 82f
1:50am 4.5ft 13s 6s 11 13 mph 1013.4mb 83f 82f
12:50am 5ft 11s 7s 11 13 mph 1013.9mb 83f 82f
Tue 09/16 11:50pm 5ft 14s 7s 11 13 mph 1014.1mb 83f 82f
10:50pm 5ft 14s 7s 11 13 mph 1014.3mb 83f 82f
9:50pm 5ft 15s 7s 9 13 mph 1014.4mb 83f 80f
8:50pm 5ft 15s 7s 11 13 mph 1013.9mb 83f 82f
7:50pm 5ft 11s 7s 16 20 mph 1013.2mb 83f 82f
6:50pm 5ft 15s 7s 11 16 mph 1012.8mb 83f 82f
5:50pm 5ft 14s 7s 11 13 mph 1012.2mb 84f 83f
4:50pm 5ft 15s 6s 11 16 mph 1012mb 84f 82f
3:50pm 5ft 13s 6s 13 16 mph 1011.8mb 84f 82f
2:50pm 6ft 13s 7s 11 13 mph 1012.1mb 84f 82f
1:50pm 6ft 13s 6s 11 13 mph 1012.4mb 84f 82f
12:50pm 5.5ft 13s 6s 13 16 mph 1013mb 83f 82f
11:50am 5ft 15s 6s 16 18 mph 1013.8mb 83f 82f
10:50am 6ft 15s 7s 16 18 mph 1014.3mb 83f 82f